createdAt,value
2016-11-22T08:10:01.157Z,304
2016-11-22T08:11:01.180Z,308
2016-11-22T08:12:01.282Z,308
2016-11-22T08:13:01.339Z,316
2016-11-22T08:14:01.362Z,320
2016-11-22T08:15:01.428Z,332
2016-11-22T08:16:01.517Z,336
2016-11-22T08:17:01.571Z,344
2016-11-22T08:18:02.044Z,348
2016-11-22T08:19:01.662Z,356
2016-11-22T08:20:01.741Z,360
2016-11-22T08:21:01.744Z,364
2016-11-22T08:22:01.801Z,372
2016-11-22T08:23:01.870Z,380
2016-11-22T08:24:01.910Z,384
2016-11-22T08:25:01.989Z,380
2016-11-22T08:26:02.080Z,376
2016-11-22T08:27:02.139Z,368
2016-11-22T08:28:02.161Z,364
2016-11-22T08:29:02.220Z,360
2016-11-22T08:30:02.271Z,360
2016-11-22T08:31:02.331Z,360
2016-11-22T08:32:02.397Z,360
2016-11-22T08:33:02.431Z,356
2016-11-22T08:34:02.522Z,364
2016-11-22T08:35:02.552Z,372
2016-11-22T08:36:02.590Z,384
2016-11-22T08:37:02.680Z,400
2016-11-22T08:38:02.735Z,408
2016-11-22T08:39:02.817Z,416
2016-11-22T08:40:02.816Z,428
2016-11-22T08:41:02.896Z,436
2016-11-22T08:42:02.949Z,444
2016-11-22T08:43:03.007Z,448
2016-11-22T08:44:03.040Z,460
2016-11-22T08:45:03.141Z,468
2016-11-22T08:46:03.165Z,472
2016-11-22T08:47:03.246Z,480
2016-11-22T08:48:03.301Z,484
2016-11-22T08:49:03.397Z,484
2016-11-22T08:50:03.405Z,492
2016-11-22T08:51:03.442Z,492
2016-11-22T08:52:03.497Z,496
2016-11-22T08:53:03.551Z,504
2016-11-22T08:54:03.645Z,508
2016-11-22T08:55:03.689Z,508
2016-11-22T08:56:03.765Z,504
2016-11-22T08:57:03.780Z,500
2016-11-22T08:58:03.871Z,500
2016-11-22T08:59:03.939Z,500
2016-11-22T09:00:03.950Z,500
2016-11-22T09:01:04.039Z,496
2016-11-22T09:02:04.075Z,492
2016-11-22T09:03:04.142Z,492
2016-11-22T09:04:04.229Z,488
2016-11-22T09:05:04.278Z,484
2016-11-22T09:06:04.332Z,480
2016-11-22T09:07:04.392Z,484
2016-11-22T09:08:04.440Z,480
2016-11-22T09:09:04.465Z,476
2016-11-22T09:10:04.575Z,468
2016-11-22T09:11:04.631Z,464
2016-11-22T09:12:04.634Z,460
2016-11-22T09:13:04.695Z,456
2016-11-22T09:14:04.795Z,456
2016-11-22T09:15:04.814Z,444
2016-11-22T09:16:04.872Z,436
2016-11-22T09:17:04.942Z,428
2016-11-22T09:18:05.015Z,428
2016-11-22T09:19:05.032Z,432
2016-11-22T09:20:05.409Z,432
2016-11-22T09:21:05.198Z,428
2016-11-22T09:22:05.225Z,420
2016-11-22T09:23:05.290Z,412
2016-11-22T09:24:05.316Z,412
2016-11-22T09:25:05.395Z,412
2016-11-22T09:26:05.452Z,404
2016-11-22T09:27:05.528Z,400
2016-11-22T09:28:05.575Z,400
2016-11-22T09:29:05.646Z,400
2016-11-22T09:30:05.656Z,408
2016-11-22T09:31:05.725Z,412
2016-11-22T09:32:05.793Z,412
2016-11-22T09:33:05.884Z,408
2016-11-22T09:34:05.922Z,400
2016-11-22T09:35:05.955Z,396
2016-11-22T09:36:06.009Z,396
2016-11-22T09:37:06.100Z,396
2016-11-22T09:38:06.482Z,400
2016-11-22T09:39:06.200Z,396
2016-11-22T09:40:06.281Z,400
2016-11-22T09:41:06.305Z,400
2016-11-22T09:42:06.401Z,404
2016-11-22T09:43:06.420Z,400
2016-11-22T09:44:06.486Z,396
2016-11-22T09:45:06.542Z,392
2016-11-22T09:46:06.606Z,388
2016-11-22T09:47:06.631Z,384
2016-11-22T09:48:06.715Z,384
2016-11-22T09:49:06.771Z,384
2016-11-22T09:50:06.821Z,380
2016-11-22T09:51:06.851Z,372
2016-11-22T09:52:06.939Z,372
2016-11-22T09:53:07.008Z,388
2016-11-22T09:54:07.054Z,396
2016-11-22T09:55:07.121Z,404
2016-11-22T09:56:07.159Z,416
2016-11-22T09:57:07.238Z,420
2016-11-22T09:58:07.285Z,420
2016-11-22T09:59:07.363Z,420
2016-11-22T10:00:07.375Z,428
2016-11-22T10:01:07.451Z,436
2016-11-22T10:02:07.499Z,448
2016-11-22T10:03:07.571Z,456
2016-11-22T10:04:07.615Z,456
2016-11-22T10:05:07.671Z,456
2016-11-22T10:06:07.743Z,460
2016-11-22T10:07:07.796Z,472
2016-11-22T10:08:07.845Z,488
2016-11-22T10:09:07.888Z,500
2016-11-22T10:10:07.935Z,512
2016-11-22T10:11:08.024Z,516
2016-11-22T10:12:08.105Z,512
2016-11-22T10:13:08.128Z,512
2016-11-22T10:14:08.183Z,520
2016-11-22T10:15:08.232Z,524
2016-11-22T10:16:08.293Z,524
2016-11-22T10:17:08.386Z,524
2016-11-22T10:18:08.398Z,532
2016-11-22T10:19:08.454Z,536
2016-11-22T10:20:08.529Z,544
2016-11-22T10:21:08.603Z,552
2016-11-22T10:22:08.643Z,564
2016-11-22T10:23:08.697Z,580
2016-11-22T10:24:08.734Z,596
2016-11-22T10:25:08.808Z,608
2016-11-22T10:26:08.875Z,620
2016-11-22T10:27:08.902Z,624
2016-11-22T10:28:08.989Z,636
2016-11-22T10:29:09.025Z,648
2016-11-22T10:30:09.103Z,648
2016-11-22T10:31:09.170Z,640
2016-11-22T10:32:09.220Z,632
2016-11-22T10:33:09.265Z,620
2016-11-22T10:34:09.333Z,608
2016-11-22T10:35:09.398Z,604
2016-11-22T10:36:09.439Z,604
2016-11-22T10:37:09.528Z,608
2016-11-22T10:38:09.569Z,608
2016-11-22T10:39:09.602Z,612
2016-11-22T10:40:09.663Z,624
2016-11-22T10:41:09.730Z,640
2016-11-22T10:42:09.756Z,652
2016-11-22T10:43:09.812Z,668
2016-11-22T10:44:09.926Z,680
2016-11-22T10:45:09.929Z,692
2016-11-22T10:46:10.010Z,696
2016-11-22T10:47:10.059Z,696
2016-11-22T10:48:10.118Z,688
2016-11-22T10:49:10.152Z,672
2016-11-22T10:50:10.206Z,652
2016-11-22T10:51:10.297Z,636
2016-11-22T10:52:10.409Z,624
2016-11-22T10:53:10.394Z,616
2016-11-22T10:54:10.434Z,608
2016-11-22T10:55:10.515Z,608
2016-11-22T10:56:10.583Z,608
2016-11-22T10:57:10.608Z,608
2016-11-22T10:58:10.687Z,612
2016-11-22T10:59:10.763Z,608
2016-11-22T11:00:10.839Z,588
2016-11-22T11:01:10.846Z,576
2016-11-22T11:02:11.214Z,564
2016-11-22T11:03:10.959Z,556
2016-11-22T11:04:11.029Z,552
2016-11-22T11:05:11.093Z,552
2016-11-22T11:06:11.162Z,556
2016-11-22T11:07:11.208Z,564
2016-11-22T11:08:11.276Z,568
2016-11-22T11:09:11.327Z,580
2016-11-22T11:10:11.744Z,588
2016-11-22T11:11:11.406Z,596
2016-11-22T11:12:11.492Z,600
2016-11-22T11:13:11.518Z,608
2016-11-22T11:14:11.585Z,620
2016-11-22T11:15:11.691Z,640
2016-11-22T11:16:12.002Z,668
2016-11-22T11:17:11.748Z,700
2016-11-22T11:18:11.813Z,724
2016-11-22T11:19:11.880Z,748
2016-11-22T11:20:11.937Z,768
2016-11-22T11:21:12.026Z,776
2016-11-22T11:22:12.064Z,768
2016-11-22T11:23:12.136Z,760
2016-11-22T11:24:12.180Z,764
2016-11-22T11:25:12.219Z,764
2016-11-22T11:26:12.305Z,760
2016-11-22T11:27:12.341Z,744
2016-11-22T11:28:12.399Z,736
2016-11-22T11:29:12.470Z,716
2016-11-22T11:30:12.510Z,720
2016-11-22T11:31:12.578Z,712
2016-11-22T11:32:12.646Z,712
2016-11-22T11:33:12.673Z,720
2016-11-22T11:34:12.716Z,724
2016-11-22T11:35:12.795Z,704
2016-11-22T11:36:12.834Z,680
2016-11-22T11:37:12.941Z,680
2016-11-22T11:38:12.982Z,692
2016-11-22T11:39:13.032Z,700
2016-11-22T11:40:13.096Z,704
2016-11-22T11:41:13.115Z,696
2016-11-22T11:42:13.253Z,676
2016-11-22T11:43:13.268Z,680
2016-11-22T11:44:13.309Z,696
2016-11-22T11:45:13.377Z,672
2016-11-22T11:46:13.422Z,656
2016-11-22T11:47:13.486Z,656
2016-11-22T11:48:13.558Z,648
2016-11-22T11:49:13.618Z,648
2016-11-22T11:50:13.657Z,636
2016-11-22T11:51:13.721Z,628
2016-11-22T11:52:13.767Z,624
2016-11-22T11:53:13.811Z,620
2016-11-22T11:54:13.882Z,612
2016-11-22T11:55:13.937Z,596
2016-11-22T11:56:13.993Z,584
2016-11-22T11:57:14.050Z,580
2016-11-22T11:58:14.114Z,572
2016-11-22T11:59:14.201Z,568
2016-11-22T12:00:14.222Z,572
2016-11-22T12:01:14.270Z,580
2016-11-22T12:02:14.349Z,592
2016-11-22T12:03:14.416Z,624
2016-11-22T12:04:14.462Z,624
2016-11-22T12:05:14.522Z,628
2016-11-22T12:06:14.575Z,640
2016-11-22T12:07:14.611Z,660
2016-11-22T12:08:14.668Z,668
2016-11-22T12:09:14.775Z,668
2016-11-22T12:10:14.794Z,668
2016-11-22T12:11:14.881Z,680
2016-11-22T12:12:14.939Z,680
2016-11-22T12:13:14.968Z,680
2016-11-22T12:14:15.030Z,672
2016-11-22T12:15:15.091Z,664
2016-11-22T12:16:15.137Z,660
2016-11-22T12:17:15.213Z,648
2016-11-22T12:18:15.250Z,632
2016-11-22T12:19:15.315Z,624
2016-11-22T12:20:15.365Z,612
2016-11-22T12:21:15.454Z,612
2016-11-22T12:22:15.492Z,612
2016-11-22T12:23:15.536Z,620
2016-11-22T12:24:15.603Z,640
2016-11-22T12:25:15.672Z,656
2016-11-22T12:26:15.687Z,660
2016-11-22T12:27:15.772Z,656
2016-11-22T12:28:15.831Z,632
2016-11-22T12:29:15.860Z,612
2016-11-22T12:30:15.956Z,600
2016-11-22T12:31:15.986Z,584
2016-11-22T12:32:16.053Z,580
2016-11-22T12:33:16.117Z,584
2016-11-22T12:34:16.178Z,580
2016-11-22T12:35:16.241Z,580
2016-11-22T12:36:16.272Z,604
2016-11-22T12:37:16.329Z,628
2016-11-22T12:38:16.391Z,648
2016-11-22T12:39:16.460Z,648
2016-11-22T12:40:16.493Z,644
2016-11-22T12:41:16.541Z,652
2016-11-22T12:42:16.621Z,664
2016-11-22T12:43:16.689Z,676
2016-11-22T12:44:16.760Z,680
2016-11-22T12:45:16.779Z,676
2016-11-22T12:46:16.873Z,672
2016-11-22T12:47:16.925Z,668
2016-11-22T12:48:16.938Z,656
2016-11-22T12:49:17.051Z,648
2016-11-22T12:50:17.054Z,644
2016-11-22T12:51:17.141Z,636
2016-11-22T12:52:17.200Z,632
2016-11-22T12:53:17.248Z,616
2016-11-22T12:54:17.313Z,596
2016-11-22T12:55:17.382Z,576
2016-11-22T12:56:17.415Z,560
2016-11-22T12:57:17.499Z,548
2016-11-22T12:58:17.530Z,544
2016-11-22T12:59:17.578Z,536
2016-11-22T13:00:17.646Z,532
2016-11-22T13:01:17.711Z,520
2016-11-22T13:02:17.777Z,516
2016-11-22T13:03:17.825Z,512
2016-11-22T13:04:17.863Z,508
2016-11-22T13:05:17.930Z,500
2016-11-22T13:06:17.983Z,484
2016-11-22T13:07:18.046Z,468
2016-11-22T13:08:18.138Z,456
2016-11-22T13:09:18.165Z,444
2016-11-22T13:10:18.191Z,440
2016-11-22T13:11:18.281Z,436
2016-11-22T13:12:18.329Z,436
2016-11-22T13:13:18.416Z,436
2016-11-22T13:14:18.429Z,436
2016-11-22T13:15:18.723Z,444
2016-11-22T13:16:18.757Z,444
2016-11-22T13:17:18.622Z,444
2016-11-22T13:18:18.681Z,444
2016-11-22T13:19:18.735Z,440
2016-11-22T13:20:18.796Z,444
2016-11-22T13:21:18.815Z,452
2016-11-22T13:22:18.875Z,460
2016-11-22T13:23:18.935Z,468
2016-11-22T13:24:18.986Z,476
2016-11-22T13:25:19.076Z,476
2016-11-22T13:26:19.132Z,476
2016-11-22T13:27:19.183Z,472
2016-11-22T13:28:19.238Z,464
2016-11-22T13:29:19.292Z,456
2016-11-22T13:30:19.385Z,440
2016-11-22T13:31:19.429Z,424
2016-11-22T13:32:19.447Z,408
2016-11-22T13:33:19.510Z,396
2016-11-22T13:34:19.556Z,380
2016-11-22T13:35:19.612Z,376
2016-11-22T13:36:19.703Z,372
2016-11-22T13:37:19.750Z,368
2016-11-22T13:38:19.826Z,368
2016-11-22T13:39:19.864Z,364
2016-11-22T13:40:19.899Z,360
2016-11-22T13:41:19.983Z,352
2016-11-22T13:42:20.044Z,340
2016-11-22T13:43:20.080Z,332
2016-11-22T13:44:20.157Z,324
2016-11-22T13:45:20.443Z,312
2016-11-22T13:46:20.251Z,308
2016-11-22T13:47:20.299Z,300
2016-11-22T13:48:20.381Z,296
2016-11-22T13:49:20.445Z,292
2016-11-22T13:50:20.508Z,284
2016-11-22T13:51:20.537Z,284
2016-11-22T13:52:20.610Z,288
2016-11-22T13:53:20.680Z,288
2016-11-22T13:54:20.717Z,288
2016-11-22T13:55:20.785Z,288
2016-11-22T13:56:20.808Z,288
2016-11-22T13:57:20.916Z,284
2016-11-22T13:58:20.943Z,284
2016-11-22T13:59:20.990Z,284
2016-11-22T14:00:21.068Z,284
2016-11-22T14:01:21.097Z,280
2016-11-22T14:02:21.212Z,284
2016-11-22T14:03:21.240Z,284
2016-11-22T14:04:21.308Z,284
2016-11-22T14:05:21.348Z,280
2016-11-22T14:06:21.428Z,280
2016-11-22T14:07:21.446Z,276
2016-11-22T14:08:21.493Z,272
2016-11-22T14:09:21.603Z,272
2016-11-22T14:10:21.606Z,268
2016-11-22T14:11:21.664Z,264
2016-11-22T14:12:21.755Z,256
2016-11-22T14:13:21.807Z,248
2016-11-22T14:14:21.873Z,244
2016-11-22T14:15:22.100Z,240
2016-11-22T14:16:22.447Z,232
2016-11-22T14:17:22.039Z,232
2016-11-22T14:18:22.105Z,224
2016-11-22T14:19:22.162Z,216
2016-11-22T14:20:22.219Z,212
2016-11-22T14:21:22.234Z,208
2016-11-22T14:22:22.313Z,200
2016-11-22T14:23:22.399Z,188
2016-11-22T14:24:22.448Z,180
2016-11-22T14:25:22.505Z,172
2016-11-22T14:26:22.517Z,168
2016-11-22T14:27:22.767Z,160
2016-11-22T14:28:22.650Z,156
2016-11-22T14:29:22.745Z,144
2016-11-22T14:30:22.768Z,144
2016-11-22T14:31:22.827Z,136
2016-11-22T14:32:22.922Z,132
2016-11-22T14:33:22.950Z,128
2016-11-22T14:34:22.995Z,128
2016-11-22T14:35:23.062Z,124
2016-11-22T14:36:23.097Z,124
2016-11-22T14:37:23.154Z,120
2016-11-22T14:38:23.225Z,116
2016-11-22T14:39:23.292Z,112
2016-11-22T14:40:23.356Z,112
2016-11-22T14:41:23.379Z,108
2016-11-22T14:42:23.475Z,108
2016-11-22T14:43:23.520Z,108
2016-11-22T14:44:23.585Z,104
2016-11-22T14:45:23.636Z,100
2016-11-22T14:46:23.893Z,100
2016-11-22T14:47:23.770Z,96
2016-11-22T14:48:23.802Z,92
2016-11-22T14:49:23.840Z,92
2016-11-22T14:50:23.918Z,88
2016-11-22T14:51:23.987Z,88
2016-11-22T14:52:24.042Z,84
2016-11-22T14:53:24.053Z,84
2016-11-22T14:54:24.127Z,80
2016-11-22T14:55:24.207Z,80
2016-11-22T14:56:24.246Z,80
2016-11-22T14:57:24.342Z,80
2016-11-22T14:58:24.385Z,80
2016-11-22T14:59:24.435Z,76
2016-11-22T15:00:24.502Z,76
2016-11-22T15:01:24.545Z,76
2016-11-22T15:02:24.593Z,72
2016-11-22T15:03:24.663Z,72
2016-11-22T15:04:24.694Z,68
2016-11-22T15:05:24.764Z,64
2016-11-22T15:06:24.821Z,64
2016-11-22T15:07:24.878Z,64
2016-11-22T15:08:24.933Z,60
2016-11-22T15:09:25.029Z,60
2016-11-22T15:10:25.061Z,56
2016-11-22T15:11:25.140Z,48
2016-11-22T15:12:25.165Z,48
2016-11-22T15:13:25.642Z,44
2016-11-22T15:14:25.270Z,40
2016-11-22T15:15:25.570Z,36
2016-11-22T15:16:25.588Z,36
2016-11-22T15:17:25.466Z,32
2016-11-22T15:18:25.514Z,32
2016-11-22T15:19:25.570Z,28
2016-11-22T15:20:25.637Z,28
2016-11-22T15:21:25.680Z,24
2016-11-22T15:22:25.726Z,24
2016-11-22T15:23:25.790Z,20
2016-11-22T15:24:25.833Z,20
2016-11-22T15:25:25.907Z,16
2016-11-22T15:26:25.967Z,20
2016-11-22T15:27:26.028Z,16
2016-11-22T15:28:26.066Z,12
2016-11-22T15:29:26.458Z,16
2016-11-22T15:30:26.212Z,12
2016-11-22T15:31:26.280Z,8
2016-11-22T15:32:26.285Z,8
2016-11-22T15:33:26.351Z,8
2016-11-22T15:34:26.416Z,8
2016-11-22T15:35:26.475Z,8
2016-11-22T15:36:26.553Z,4
2016-11-22T15:37:26.624Z,4
2016-11-22T15:38:26.669Z,4
2016-11-22T15:39:26.719Z,4
2016-11-22T15:40:26.825Z,4
2016-11-22T15:41:26.807Z,4
2016-11-22T15:42:26.856Z,4
2016-11-22T15:43:26.929Z,4
2016-11-22T15:44:27.002Z,4
2016-11-22T15:45:27.055Z,4
2016-11-22T15:46:27.318Z,0
2016-11-22T15:47:27.159Z,0
2016-11-22T15:48:27.206Z,0
2016-11-22T15:49:27.285Z,0
2016-11-22T15:50:27.343Z,0
2016-11-22T15:51:27.397Z,0
2016-11-22T15:52:27.431Z,0
2016-11-22T15:53:27.537Z,0
2016-11-22T15:54:27.556Z,0
2016-11-22T15:55:27.641Z,0
2016-11-22T15:56:27.685Z,0
2016-11-22T15:57:27.765Z,0
2016-11-22T15:58:27.819Z,0
2016-11-22T15:59:27.875Z,0
2016-11-22T16:00:27.909Z,0
2016-11-22T16:01:27.958Z,0
2016-11-22T16:02:28.025Z,0
2016-11-22T16:03:28.063Z,0
2016-11-22T16:04:28.420Z,0
2016-11-22T16:05:28.183Z,0
2016-11-22T16:06:28.288Z,0
2016-11-22T16:07:28.318Z,0
2016-11-22T16:08:28.358Z,0
2016-11-22T16:09:28.389Z,0
2016-11-22T16:10:28.493Z,0
2016-11-22T16:11:28.526Z,0
2016-11-22T16:12:28.582Z,0
2016-11-22T16:13:28.640Z,0
2016-11-22T16:14:28.678Z,0
2016-11-22T16:15:28.753Z,0
2016-11-22T16:16:28.822Z,0
2016-11-22T16:17:28.869Z,0
2016-11-22T16:18:28.944Z,0
2016-11-22T16:19:28.990Z,0
2016-11-22T16:20:29.053Z,0
2016-11-22T16:21:29.074Z,0
2016-11-22T16:22:29.161Z,0
2016-11-22T16:23:29.196Z,0
2016-11-22T16:24:29.262Z,0
2016-11-22T16:25:29.312Z,0
2016-11-22T16:26:29.419Z,0
2016-11-22T16:27:29.445Z,0
2016-11-22T16:28:29.523Z,0
2016-11-22T16:29:29.537Z,0
2016-11-22T16:30:29.592Z,0
2016-11-22T16:31:29.652Z,0
2016-11-22T16:32:29.699Z,0
2016-11-22T16:33:29.786Z,0
2016-11-22T16:34:29.854Z,0
2016-11-22T16:35:29.889Z,0
2016-11-22T16:36:29.944Z,0
2016-11-22T16:37:30.015Z,0
2016-11-22T16:38:30.042Z,0
2016-11-22T16:39:30.128Z,0
2016-11-22T16:40:30.181Z,0
2016-11-22T16:41:30.219Z,0
2016-11-22T16:42:30.301Z,0
2016-11-22T16:43:30.354Z,0
2016-11-22T16:44:30.380Z,0
2016-11-22T16:45:30.465Z,0
2016-11-22T16:46:30.554Z,0
2016-11-22T16:47:30.555Z,0
2016-11-22T16:48:30.609Z,0
2016-11-22T16:49:30.687Z,0
2016-11-22T16:50:30.766Z,0
2016-11-22T16:51:30.801Z,0
2016-11-22T16:52:30.857Z,0
2016-11-22T16:53:30.901Z,0
2016-11-22T16:54:30.985Z,0
2016-11-22T16:55:31.110Z,0
2016-11-22T16:56:31.105Z,0
2016-11-22T16:57:31.134Z,0
2016-11-22T16:58:31.209Z,0
2016-11-22T16:59:31.256Z,0
2016-11-22T17:00:31.345Z,0
2016-11-22T17:01:31.369Z,0
2016-11-22T17:02:31.442Z,0
2016-11-22T17:03:31.469Z,0
2016-11-22T17:04:31.551Z,0
2016-11-22T17:05:31.596Z,0
2016-11-22T17:06:31.688Z,0
2016-11-22T17:07:32.007Z,0
2016-11-22T17:08:31.776Z,0
2016-11-22T17:09:31.823Z,0
2016-11-22T17:10:31.921Z,0
2016-11-22T17:11:31.947Z,0
2016-11-22T17:12:31.997Z,0
2016-11-22T17:13:32.080Z,0
2016-11-22T17:14:32.132Z,0
2016-11-22T17:15:32.195Z,0
2016-11-22T17:16:32.201Z,0
2016-11-22T17:17:32.288Z,0
2016-11-22T17:18:32.344Z,0
2016-11-22T17:19:32.371Z,0
2016-11-22T17:20:32.448Z,0
2016-11-22T17:21:32.527Z,0
2016-11-22T17:22:32.540Z,0
2016-11-22T17:23:32.644Z,0
2016-11-22T17:24:32.688Z,0
2016-11-22T17:25:32.713Z,0
2016-11-22T17:26:32.843Z,0
2016-11-22T17:27:32.887Z,0
2016-11-22T17:28:32.883Z,0
2016-11-22T17:29:32.968Z,0
2016-11-22T17:30:33.001Z,0
2016-11-22T17:31:33.094Z,0
2016-11-22T17:32:33.140Z,0
2016-11-22T17:33:33.189Z,0
2016-11-22T17:34:33.254Z,0
2016-11-22T17:35:33.301Z,0
2016-11-22T17:36:33.392Z,0
2016-11-22T17:37:33.417Z,0
2016-11-22T17:38:33.480Z,0
2016-11-22T17:39:33.514Z,0
2016-11-22T17:40:33.573Z,0
2016-11-22T17:41:33.666Z,0
2016-11-22T17:42:33.698Z,0
2016-11-22T17:43:33.753Z,0
2016-11-22T17:44:33.824Z,0
2016-11-22T17:45:33.907Z,0
2016-11-22T17:46:34.167Z,0
2016-11-22T17:47:33.991Z,0
2016-11-22T17:48:34.060Z,0
2016-11-22T17:49:34.113Z,0
2016-11-22T17:50:34.164Z,0
2016-11-22T17:51:34.598Z,0
2016-11-22T17:52:34.264Z,0
2016-11-22T17:53:34.312Z,0
2016-11-22T17:54:34.389Z,0
2016-11-22T17:55:34.417Z,0
2016-11-22T17:56:34.504Z,0
2016-11-22T17:57:34.540Z,0
2016-11-22T17:58:34.646Z,0
2016-11-22T17:59:34.695Z,0
2016-11-22T18:00:34.761Z,0
2016-11-22T18:01:34.779Z,0
2016-11-22T18:02:34.850Z,0
2016-11-22T18:03:34.873Z,0
2016-11-22T18:04:34.935Z,0
2016-11-22T18:05:35.005Z,0
2016-11-22T18:06:35.071Z,0
2016-11-22T18:07:35.132Z,0
2016-11-22T18:08:35.227Z,0
2016-11-22T18:09:35.261Z,0
2016-11-22T18:10:35.273Z,0
2016-11-22T18:11:35.354Z,0
2016-11-22T18:12:35.413Z,0
2016-11-22T18:13:35.464Z,0
2016-11-22T18:14:35.514Z,0
2016-11-22T18:15:35.548Z,0
2016-11-22T18:16:35.624Z,0
2016-11-22T18:17:35.682Z,0
2016-11-22T18:18:35.775Z,0
2016-11-22T18:19:35.823Z,0
2016-11-22T18:20:35.871Z,0
2016-11-22T18:21:35.914Z,0
2016-11-22T18:22:35.968Z,0
2016-11-22T18:23:36.004Z,0
2016-11-22T18:24:36.410Z,0
2016-11-22T18:25:36.153Z,0
2016-11-22T18:26:36.173Z,0
2016-11-22T18:27:36.285Z,0
2016-11-22T18:28:36.318Z,0
2016-11-22T18:29:36.363Z,0
2016-11-22T18:30:36.398Z,0
2016-11-22T18:31:36.474Z,0
2016-11-22T18:32:36.532Z,0
2016-11-22T18:33:36.610Z,0
2016-11-22T18:34:36.636Z,0
2016-11-22T18:35:36.682Z,0
2016-11-22T18:36:36.923Z,0
2016-11-22T18:37:36.836Z,0
2016-11-22T18:38:37.274Z,0
2016-11-22T18:39:36.942Z,0
2016-11-22T18:40:37.001Z,0
2016-11-22T18:41:37.024Z,0
2016-11-22T18:42:37.112Z,0
2016-11-22T18:43:37.193Z,0
2016-11-22T18:44:37.247Z,0
2016-11-22T18:45:37.295Z,0
2016-11-22T18:46:37.306Z,0
2016-11-22T18:47:37.362Z,0
2016-11-22T18:48:37.456Z,0
2016-11-22T18:49:37.509Z,0
2016-11-22T18:50:37.557Z,0
2016-11-22T18:51:37.620Z,0
2016-11-22T18:52:37.702Z,0
2016-11-22T18:53:37.722Z,0
2016-11-22T18:54:38.245Z,0
2016-11-22T18:55:37.851Z,0
2016-11-22T18:56:37.903Z,0
2016-11-22T18:57:37.933Z,0
2016-11-22T18:58:37.998Z,0
2016-11-22T18:59:38.418Z,0
2016-11-22T19:00:38.133Z,0
2016-11-22T19:01:38.192Z,0
2016-11-22T19:02:38.260Z,0
2016-11-22T19:03:38.305Z,0
2016-11-22T19:04:38.338Z,0
2016-11-22T19:05:38.385Z,0
2016-11-22T19:06:38.482Z,0
2016-11-22T19:07:38.500Z,0
2016-11-22T19:08:38.573Z,0
2016-11-22T19:09:38.653Z,0
2016-11-22T19:10:38.709Z,0
2016-11-22T19:11:38.740Z,0
2016-11-22T19:12:38.787Z,0
2016-11-22T19:13:38.855Z,0
2016-11-22T19:14:38.901Z,0
2016-11-22T19:15:38.969Z,0
2016-11-22T19:16:39.027Z,0
2016-11-22T19:17:39.104Z,0
2016-11-22T19:18:39.149Z,0
2016-11-22T19:19:39.196Z,0
2016-11-22T19:20:39.268Z,0
2016-11-22T19:21:39.319Z,0
2016-11-22T19:22:39.391Z,0
2016-11-22T19:23:39.457Z,0
2016-11-22T19:24:39.501Z,0
2016-11-22T19:25:39.558Z,0
2016-11-22T19:26:39.632Z,0
2016-11-22T19:27:39.669Z,0
2016-11-22T19:28:39.698Z,0
2016-11-22T19:29:39.763Z,0
2016-11-22T19:30:39.808Z,0
2016-11-22T19:31:39.901Z,0
2016-11-22T19:32:39.913Z,0
2016-11-22T19:33:40.193Z,0
2016-11-22T19:34:40.058Z,0
2016-11-22T19:35:40.115Z,0
2016-11-22T19:36:40.172Z,0
2016-11-22T19:37:40.250Z,0
2016-11-22T19:38:40.326Z,0
2016-11-22T19:39:40.324Z,0
2016-11-22T19:40:40.404Z,0
2016-11-22T19:41:40.477Z,0
2016-11-22T19:42:40.524Z,0
2016-11-22T19:43:40.535Z,0
2016-11-22T19:44:40.623Z,0
2016-11-22T19:45:40.673Z,0
2016-11-22T19:46:40.728Z,0
2016-11-22T19:47:40.796Z,0
2016-11-22T19:48:40.820Z,0
2016-11-22T19:49:40.922Z,0
2016-11-22T19:50:40.965Z,0
2016-11-22T19:51:41.011Z,0
2016-11-22T19:52:41.100Z,0
2016-11-22T19:53:41.156Z,0
2016-11-22T19:54:41.194Z,0
2016-11-22T19:55:41.270Z,0
2016-11-22T19:56:41.304Z,0
2016-11-22T19:57:41.331Z,0
2016-11-22T19:58:41.398Z,0
2016-11-22T19:59:41.466Z,0
2016-11-22T20:00:41.540Z,0
2016-11-22T20:01:41.576Z,0
2016-11-22T20:02:41.664Z,0
2016-11-22T20:03:41.691Z,0
2016-11-22T20:04:41.748Z,0
2016-11-22T20:05:41.781Z,0
2016-11-22T20:06:41.878Z,0
2016-11-22T20:07:41.932Z,0
2016-11-22T20:08:41.983Z,0
2016-11-22T20:09:42.037Z,0
2016-11-22T20:10:42.108Z,0
2016-11-22T20:11:42.192Z,0
2016-11-22T20:12:42.201Z,0
2016-11-22T20:13:42.276Z,0
2016-11-22T20:14:42.323Z,0
2016-11-22T20:15:42.368Z,0
2016-11-22T20:16:42.447Z,0
2016-11-22T20:17:42.495Z,0
2016-11-22T20:18:42.530Z,0
2016-11-22T20:19:42.926Z,0
2016-11-22T20:20:42.640Z,0
2016-11-22T20:21:42.721Z,0
2016-11-22T20:22:42.747Z,0
2016-11-22T20:23:42.802Z,0
2016-11-22T20:24:42.879Z,0
2016-11-22T20:25:42.931Z,0
2016-11-22T20:26:43.013Z,0
2016-11-22T20:27:43.046Z,0
2016-11-22T20:28:43.104Z,0
2016-11-22T20:29:43.168Z,0
2016-11-22T20:30:43.213Z,0
2016-11-22T20:31:43.287Z,0
2016-11-22T20:32:43.313Z,0
2016-11-22T20:33:43.402Z,0
2016-11-22T20:34:43.460Z,0
2016-11-22T20:35:43.506Z,0
2016-11-22T20:36:43.572Z,0
2016-11-22T20:37:43.628Z,0
2016-11-22T20:38:53.757Z,0
2016-11-22T20:39:43.778Z,0
2016-11-22T20:40:43.796Z,0
2016-11-22T20:41:43.853Z,0
2016-11-22T20:42:43.902Z,0
2016-11-22T20:43:43.959Z,0
2016-11-22T20:44:44.011Z,0
2016-11-22T20:45:44.097Z,0
2016-11-22T20:46:44.129Z,0
2016-11-22T20:47:44.173Z,0
2016-11-22T20:48:44.261Z,0
2016-11-22T20:49:44.307Z,0
2016-11-22T20:50:44.339Z,0
2016-11-22T20:51:44.447Z,0
2016-11-22T20:52:44.785Z,0
2016-11-22T20:53:44.547Z,0
2016-11-22T20:54:44.558Z,0
2016-11-22T20:55:44.641Z,0
2016-11-22T20:56:44.683Z,0
2016-11-22T20:57:44.786Z,0
2016-11-22T20:58:44.818Z,0
2016-11-22T20:59:44.899Z,0
2016-11-22T21:00:44.953Z,0
2016-11-22T21:01:44.970Z,0
2016-11-22T21:02:45.068Z,0
2016-11-22T21:03:45.131Z,0
2016-11-22T21:04:45.148Z,0
2016-11-22T21:05:45.231Z,0
2016-11-22T21:06:45.284Z,0
2016-11-22T21:07:45.352Z,0
2016-11-22T21:08:45.364Z,0
2016-11-22T21:09:45.432Z,0
2016-11-22T21:10:45.503Z,0
2016-11-22T21:11:45.546Z,0
2016-11-22T21:12:45.602Z,0
2016-11-22T21:13:45.656Z,0
2016-11-22T21:14:45.727Z,0
2016-11-22T21:15:46.117Z,0
2016-11-22T21:16:45.859Z,0
2016-11-22T21:17:45.874Z,0
2016-11-22T21:18:45.952Z,0
2016-11-22T21:19:45.974Z,0
2016-11-22T21:20:46.056Z,0
2016-11-22T21:21:46.120Z,0
2016-11-22T21:22:46.187Z,0
2016-11-22T21:23:46.235Z,0
2016-11-22T21:24:46.297Z,0
2016-11-22T21:25:46.362Z,0
2016-11-22T21:26:46.402Z,0
2016-11-22T21:27:46.439Z,0
2016-11-22T21:28:46.484Z,0
2016-11-22T21:29:46.540Z,0
2016-11-22T21:30:46.618Z,0
2016-11-22T21:31:46.653Z,0
2016-11-22T21:32:46.731Z,0
2016-11-22T21:33:46.798Z,0
2016-11-22T21:34:46.874Z,0
2016-11-22T21:35:46.923Z,0
2016-11-22T21:36:46.971Z,0
2016-11-22T21:37:47.029Z,0
2016-11-22T21:38:47.094Z,0
2016-11-22T21:39:47.147Z,0
2016-11-22T21:40:47.205Z,0
2016-11-22T21:41:47.232Z,0
2016-11-22T21:42:47.298Z,0
2016-11-22T21:43:47.329Z,0
2016-11-22T21:44:47.419Z,0
2016-11-22T21:45:47.499Z,0
2016-11-22T21:46:47.522Z,0
2016-11-22T21:47:47.600Z,0
2016-11-22T21:48:47.648Z,0
2016-11-22T21:49:47.693Z,0
2016-11-22T21:50:47.761Z,0
2016-11-22T21:51:47.828Z,0
2016-11-22T21:52:47.840Z,0
2016-11-22T21:53:47.919Z,0
2016-11-22T21:54:47.997Z,0
2016-11-22T21:55:48.043Z,0
2016-11-22T21:56:48.122Z,0
2016-11-22T21:57:48.148Z,0
2016-11-22T21:58:48.229Z,0
2016-11-22T21:59:48.276Z,0
2016-11-22T22:00:48.315Z,0
2016-11-22T22:01:48.383Z,0
2016-11-22T22:02:48.461Z,0
2016-11-22T22:03:48.517Z,0
2016-11-22T22:04:48.552Z,0
2016-11-22T22:05:48.590Z,0
2016-11-22T22:06:48.669Z,0
2016-11-22T22:07:48.735Z,0
2016-11-22T22:08:48.800Z,0
2016-11-22T22:09:48.833Z,0
2016-11-22T22:10:48.929Z,0
2016-11-22T22:11:48.950Z,0
2016-11-22T22:12:48.998Z,0
2016-11-22T22:13:49.074Z,0
2016-11-22T22:14:49.098Z,0
2016-11-22T22:15:49.178Z,0
2016-11-22T22:16:49.221Z,0
2016-11-22T22:17:49.278Z,0
2016-11-22T22:18:49.313Z,0
2016-11-22T22:19:49.403Z,0
2016-11-22T22:20:49.453Z,0
2016-11-22T22:21:49.486Z,0
2016-11-22T22:22:49.595Z,0
2016-11-22T22:23:49.649Z,0
2016-11-22T22:24:49.709Z,0
2016-11-22T22:25:49.765Z,0
2016-11-22T22:26:49.928Z,0